Los Angeles, California
Traffic Map
Current Weather Conditions
Los Angeles, California
Clear
Clear
71°
Feels Like: 71°
Wind Chill: 71° Ceiling: Unl
Heat Index: 71° Visibility: 10mi
Dew Point: 60° Wind: 3mph
Humidity: 68% Direction: 280° (W)
Pressure: 29.91in Gusts: 0mph
Raw Report DataKCQT 230147Z AUTO 28003KT 10SM CLR 22/16 A2991 RMK AO2 SLP126 T02170156
Traffic Incident Summary
Active as of:
Severity:
Category:
InformationThere was an issue retrieving the traffic information for this location. Please try a different location or try again shortly.
Advertisements
Track Severe Weather on mobile